Time;durP1;ratioP1;P1;durP2;ratioP2;P2;SDS_P1;SDS_P2;PMS_P1;PMS_P2;Temp;Humidity;BMP_temperature;BMP_pressure;BME280_temperature;BME280_humidity;BME280_pressure;Samples;Min_cycle;Max_cycle;Signal;HPM_P1;HPM_P2
2022/09/30 00:01:14;;;;;;;1.88;1.77;;;9.90;99.90;;;;;;5085785;28;20409;-72
2022/09/30 00:03:40;;;;;;;5.00;1.90;;;9.70;99.90;;;;;;5086641;28;20418;-72
2022/09/30 00:06:06;;;;;;;2.50;1.70;;;9.70;99.90;;;;;;5086665;28;20401;-72
2022/09/30 00:08:32;;;;;;;2.30;1.70;;;9.70;99.90;;;;;;5090294;28;20398;-72
2022/09/30 00:11:19;;;;;;;1.92;1.77;;;9.80;99.90;;;;;;5072240;28;20390;-72
2022/09/30 00:13:47;;;;;;;1.70;1.60;;;9.80;99.90;;;;;;5087149;28;20984;-72
2022/09/30 00:16:13;;;;;;;2.63;1.60;;;9.80;99.90;;;;;;5077791;28;20419;-72
2022/09/30 00:18:40;;;;;;;2.70;1.58;;;9.80;99.90;;;;;;5084505;28;20474;-72
2022/09/30 00:21:07;;;;;;;1.60;1.50;;;9.80;99.90;;;;;;5087996;28;20435;-72
2022/09/30 00:23:33;;;;;;;1.70;1.60;;;9.80;99.90;;;;;;5090286;28;20430;-72
2022/09/30 00:26:01;;;;;;;1.67;1.58;;;9.70;99.90;;;;;;5088405;28;20425;-73
2022/09/30 00:28:27;;;;;;;2.42;1.50;;;9.70;99.90;;;;;;5089193;28;20402;-72
2022/09/30 00:30:57;;;;;;;2.20;2.10;;;9.60;99.90;;;;;;5090656;28;20492;-72
2022/09/30 00:33:22;;;;;;;1.67;1.58;;;9.70;99.90;;;;;;5086753;28;20401;-72
2022/09/30 00:35:48;;;;;;;1.60;1.50;;;9.70;99.90;;;;;;5084892;28;20394;-72
2022/09/30 00:38:13;;;;;;;2.90;1.80;;;9.80;99.90;;;;;;5088544;28;20510;-72
2022/09/30 00:40:39;;;;;;;1.93;1.83;;;9.80;99.90;;;;;;5071888;28;20429;-72
2022/09/30 00:43:20;;;;;;;1.80;1.70;;;9.60;99.90;;;;;;5080649;28;20398;-72
2022/09/30 00:45:58;;;;;;;2.03;1.83;;;9.60;99.90;;;;;;5089076;28;20386;-72
2022/09/30 00:48:32;;;;;;;2.00;1.90;;;9.70;99.90;;;;;;5081514;28;20861;-72
2022/09/30 00:50:59;;;;;;;3.00;2.10;;;9.80;99.90;;;;;;5078035;28;20945;-72
2022/09/30 00:53:33;;;;;;;1.80;1.50;;;9.70;99.90;;;;;;5083309;28;20402;-72
2022/09/30 00:56:01;;;;;;;2.10;1.90;;;9.80;99.90;;;;;;5084823;28;20396;-72
2022/09/30 00:58:34;;;;;;;2.00;1.90;;;9.70;99.90;;;;;;5088716;28;20489;-72
2022/09/30 01:01:00;;;;;;;1.90;1.80;;;9.70;99.90;;;;;;5086420;28;20910;-72
2022/09/30 01:03:30;;;;;;;2.10;1.90;;;9.70;99.90;;;;;;5087730;28;20948;-72
2022/09/30 01:05:55;;;;;;;1.90;1.80;;;9.70;99.90;;;;;;5070552;28;20756;-71
2022/09/30 01:08:22;;;;;;;2.00;1.80;;;9.60;99.90;;;;;;5084207;28;20486;-72
2022/09/30 01:10:48;;;;;;;1.80;1.60;;;9.70;99.90;;;;;;5086759;28;20398;-72
2022/09/30 01:13:16;;;;;;;2.13;1.93;;;9.80;99.90;;;;;;5079674;28;20897;-72
2022/09/30 01:15:52;;;;;;;2.05;1.85;;;9.70;99.90;;;;;;5089783;28;20914;-72
2022/09/30 01:18:56;;;;;;;2.00;1.80;;;9.70;99.90;;;;;;5082947;28;20489;-71
2022/09/30 01:21:52;;;;;;;3.60;2.05;;;9.70;99.90;;;;;;5089502;28;20398;-71
2022/09/30 01:24:36;;;;;;;1.80;1.70;;;9.70;99.90;;;;;;5079359;28;20477;-71
2022/09/30 01:27:16;;;;;;;2.10;1.80;;;9.70;99.90;;;;;;5086948;28;20382;-71
2022/09/30 01:29:56;;;;;;;2.20;1.80;;;9.80;99.90;;;;;;5075602;28;20396;-71
2022/09/30 01:32:28;;;;;;;1.80;1.70;;;9.70;99.90;;;;;;5079841;28;20748;-71
2022/09/30 01:35:12;;;;;;;2.00;1.90;;;9.60;99.90;;;;;;5074813;28;20412;-71
2022/09/30 01:37:51;;;;;;;2.63;2.42;;;9.50;99.90;;;;;;5083172;28;20394;-71
2022/09/30 01:40:24;;;;;;;1.90;1.80;;;9.60;99.90;;;;;;5065085;28;20427;-71
2022/09/30 01:43:06;;;;;;;2.00;1.60;;;9.50;99.90;;;;;;5085084;28;20864;-71
2022/09/30 01:45:35;;;;;;;1.83;1.73;;;9.60;99.90;;;;;;5087984;28;20413;-71
2022/09/30 01:48:24;;;;;;;1.70;1.60;;;9.60;99.90;;;;;;5086253;28;20804;-71
2022/09/30 01:51:02;;;;;;;2.38;1.77;;;9.50;99.90;;;;;;5081027;28;20405;-71
2022/09/30 01:53:46;;;;;;;1.98;1.30;;;9.50;99.90;;;;;;5086562;28;20465;-71
2022/09/30 01:56:24;;;;;;;1.83;1.70;;;9.40;99.90;;;;;;5088983;28;20451;-72
2022/09/30 01:59:00;;;;;;;3.40;2.00;;;9.30;99.90;;;;;;5087449;28;20401;-71
2022/09/30 02:01:35;;;;;;;2.30;2.10;;;9.30;99.90;;;;;;5085996;28;20903;-71
2022/09/30 02:04:08;;;;;;;3.55;2.72;;;9.30;99.90;;;;;;5082728;28;20424;-71
2022/09/30 02:06:48;;;;;;;2.10;1.90;;;9.20;99.90;;;;;;5081635;28;20772;-72
2022/09/30 02:09:19;;;;;;;2.50;1.73;;;9.30;99.90;;;;;;5085104;28;20455;-72
2022/09/30 02:11:45;;;;;;;7.40;2.33;;;9.20;99.90;;;;;;5077327;28;20420;-71
2022/09/30 02:14:25;;;;;;;2.00;1.80;;;9.20;99.90;;;;;;5079673;28;20919;-71
2022/09/30 02:17:06;;;;;;;3.03;1.90;;;9.20;99.90;;;;;;5082757;28;20386;-71
2022/09/30 02:19:44;;;;;;;2.72;1.80;;;9.20;99.90;;;;;;5069578;28;20382;-71
2022/09/30 02:22:19;;;;;;;2.08;1.98;;;9.30;99.90;;;;;;5090335;28;20874;-72
2022/09/30 02:24:48;;;;;;;2.10;1.90;;;9.30;99.90;;;;;;5073795;28;20445;-72
2022/09/30 02:27:27;;;;;;;2.00;1.80;;;9.30;99.90;;;;;;5083462;28;20374;-72
2022/09/30 02:29:56;;;;;;;3.20;2.00;;;9.30;99.90;;;;;;5080550;28;20754;-72
2022/09/30 02:32:32;;;;;;;1.90;1.80;;;9.40;99.90;;;;;;5084344;28;20402;-71
2022/09/30 02:35:19;;;;;;;2.50;1.70;;;9.40;99.90;;;;;;5064731;28;20476;-72
2022/09/30 02:37:49;;;;;;;1.80;1.70;;;9.40;99.90;;;;;;5077134;28;20448;-72
2022/09/30 02:40:38;;;;;;;5.28;1.88;;;9.30;99.90;;;;;;5079890;28;20395;-72
2022/09/30 02:43:05;;;;;;;2.20;1.60;;;9.30;99.90;;;;;;5086390;28;20394;-72
2022/09/30 02:45:45;;;;;;;2.90;2.00;;;9.40;99.90;;;;;;5084957;28;20522;-72
2022/09/30 02:48:17;;;;;;;2.30;1.80;;;9.50;99.90;;;;;;5086642;28;20398;-72
2022/09/30 02:50:49;;;;;;;2.10;1.90;;;9.50;99.90;;;;;;5086667;28;20402;-72
2022/09/30 02:53:33;;;;;;;1.65;1.55;;;9.40;99.90;;;;;;5082483;28;20394;-72
2022/09/30 02:56:28;;;;;;;1.80;1.70;;;9.40;99.90;;;;;;5079645;28;20908;-72
2022/09/30 02:58:55;;;;;;;1.90;1.70;;;9.40;99.90;;;;;;5078784;28;20402;-71
2022/09/30 03:01:21;;;;;;;3.27;1.67;;;9.40;99.90;;;;;;5082572;28;20394;-72
2022/09/30 03:03:49;;;;;;;2.40;1.80;;;9.30;99.90;;;;;;5080705;28;20466;-72
2022/09/30 03:06:15;;;;;;;1.93;1.57;;;9.40;99.90;;;;;;5072311;28;20984;-72
2022/09/30 03:08:41;;;;;;;1.90;1.80;;;9.30;99.90;;;;;;5089611;28;21161;-72
2022/09/30 03:11:11;;;;;;;1.60;1.50;;;9.30;99.90;;;;;;5088081;28;20493;-72
2022/09/30 03:14:15;;;;;;;2.83;1.60;;;9.20;99.90;;;;;;5082608;28;20425;-71
2022/09/30 03:17:08;;;;;;;2.00;1.80;;;9.10;99.90;;;;;;5079489;28;20755;-71
2022/09/30 03:19:44;;;;;;;1.70;1.60;;;9.00;99.90;;;;;;5080477;28;20401;-71
2022/09/30 03:22:41;;;;;;;1.90;1.50;;;9.10;99.90;;;;;;5082769;28;20548;-72
2022/09/30 03:25:51;;;;;;;2.50;1.67;;;9.20;99.90;;;;;;5084466;28;20402;-71
2022/09/30 03:28:25;;;;;;;1.73;1.58;;;9.00;99.90;;;;;;5090916;28;20824;-72
2022/09/30 03:31:16;;;;;;;4.30;2.28;;;9.00;99.90;;;;;;5083591;28;20413;-72
2022/09/30 03:33:56;;;;;;;1.70;1.60;;;9.00;99.90;;;;;;5080724;28;20418;-72
2022/09/30 03:36:24;;;;;;;2.10;1.80;;;8.90;99.90;;;;;;5067394;28;20435;-72
2022/09/30 03:39:10;;;;;;;1.50;1.40;;;8.80;99.90;;;;;;5083096;28;20455;-72
2022/09/30 03:41:50;;;;;;;3.10;1.55;;;8.80;99.90;;;;;;5084326;28;20401;-73
2022/09/30 03:44:22;;;;;;;2.15;1.85;;;8.80;99.90;;;;;;5087217;28;20411;-73
2022/09/30 03:46:52;;;;;;;1.67;1.50;;;8.80;99.90;;;;;;5087464;28;20914;-72
2022/09/30 03:49:23;;;;;;;1.70;1.40;;;8.80;99.90;;;;;;5089986;28;20406;-72
2022/09/30 03:51:49;;;;;;;2.20;1.45;;;8.80;99.90;;;;;;5083121;28;20408;-72
2022/09/30 03:54:15;;;;;;;1.88;1.20;;;8.80;99.90;;;;;;5090766;28;20850;-72
2022/09/30 03:56:42;;;;;;;1.60;1.50;;;8.80;99.90;;;;;;5091003;28;20455;-72
2022/09/30 03:59:24;;;;;;;1.50;1.40;;;8.70;99.90;;;;;;5082635;28;20885;-72
2022/09/30 04:01:50;;;;;;;2.20;1.70;;;8.50;99.90;;;;;;5090231;28;20402;-72
2022/09/30 04:04:16;;;;;;;1.63;1.53;;;8.60;99.90;;;;;;5084419;28;20484;-72
2022/09/30 04:06:42;;;;;;;2.30;1.60;;;8.60;99.90;;;;;;5079426;28;20485;-72
2022/09/30 04:09:08;;;;;;;1.60;1.50;;;8.60;99.90;;;;;;5085095;28;20476;-72
2022/09/30 04:11:33;;;;;;;2.53;1.40;;;8.50;99.90;;;;;;5089833;28;20394;-72
2022/09/30 04:14:00;;;;;;;2.35;1.60;;;8.60;99.90;;;;;;5092175;28;20417;-73
2022/09/30 04:16:28;;;;;;;2.50;1.60;;;8.60;99.90;;;;;;5092659;28;20799;-72
2022/09/30 04:18:55;;;;;;;1.73;1.63;;;8.50;99.90;;;;;;5083234;28;20437;-72
2022/09/30 04:21:21;;;;;;;4.10;2.00;;;8.40;99.90;;;;;;5086980;28;20391;-72
2022/09/30 04:23:46;;;;;;;1.60;1.50;;;8.50;99.90;;;;;;5067188;28;20404;-72
2022/09/30 04:26:14;;;;;;;2.07;1.53;;;8.50;99.90;;;;;;5087826;28;20402;-72
2022/09/30 04:28:40;;;;;;;1.98;1.85;;;8.60;99.90;;;;;;5072111;28;20405;-72
2022/09/30 04:31:06;;;;;;;3.40;1.67;;;8.60;99.90;;;;;;5082822;28;20405;-72
2022/09/30 04:33:32;;;;;;;3.20;1.70;;;8.60;99.90;;;;;;5082755;28;20417;-72
2022/09/30 04:36:00;;;;;;;2.10;1.60;;;8.50;99.90;;;;;;5093246;28;20517;-72
2022/09/30 04:38:26;;;;;;;2.00;1.60;;;8.50;99.90;;;;;;5081183;28;20409;-73
2022/09/30 04:40:55;;;;;;;3.70;1.70;;;8.50;99.90;;;;;;5083186;28;20399;-73
2022/09/30 04:43:22;;;;;;;2.50;2.10;;;8.40;99.90;;;;;;5070319;28;20408;-72
2022/09/30 04:45:49;;;;;;;2.30;1.30;;;8.40;99.90;;;;;;5098823;28;20394;-72
2022/09/30 04:48:15;;;;;;;2.00;1.40;;;8.40;99.90;;;;;;5073883;28;20382;-72
2022/09/30 04:50:41;;;;;;;1.50;1.30;;;8.30;99.90;;;;;;5081440;28;20429;-72
2022/09/30 04:53:09;;;;;;;1.90;1.70;;;8.40;99.90;;;;;;5088179;28;20400;-72
2022/09/30 04:55:34;;;;;;;1.58;1.48;;;8.30;99.90;;;;;;5104297;28;20403;-72
2022/09/30 04:58:00;;;;;;;1.70;1.60;;;8.30;99.90;;;;;;5088046;28;20858;-73
2022/09/30 05:00:25;;;;;;;1.60;1.50;;;8.30;99.90;;;;;;5073482;28;20410;-72
2022/09/30 05:02:51;;;;;;;2.30;1.60;;;8.30;99.90;;;;;;5072522;28;20386;-72
2022/09/30 05:05:17;;;;;;;1.92;1.70;;;8.20;99.90;;;;;;5066281;28;20398;-72
2022/09/30 05:07:43;;;;;;;2.10;1.90;;;8.10;99.90;;;;;;5076878;28;20418;-72
2022/09/30 05:10:10;;;;;;;2.00;1.90;;;8.00;99.90;;;;;;5074481;28;20411;-72
2022/09/30 05:12:39;;;;;;;4.20;2.60;;;8.10;99.90;;;;;;5091133;28;20397;-72
2022/09/30 05:15:06;;;;;;;2.60;1.70;;;8.10;99.90;;;;;;5082449;28;20407;-72
2022/09/30 05:17:32;;;;;;;2.10;1.90;;;8.20;99.90;;;;;;5091003;28;20393;-72
2022/09/30 05:19:58;;;;;;;3.08;2.25;;;8.10;99.90;;;;;;5072367;28;20394;-72
2022/09/30 05:22:24;;;;;;;2.47;2.28;;;8.20;99.90;;;;;;5079434;28;20399;-71
2022/09/30 05:24:51;;;;;;;2.00;1.90;;;8.10;99.90;;;;;;5097020;28;20908;-72
2022/09/30 05:27:18;;;;;;;2.70;1.83;;;8.00;99.90;;;;;;5100960;28;20382;-72
2022/09/30 05:29:43;;;;;;;2.20;2.00;;;8.00;99.90;;;;;;5104095;28;20390;-72
2022/09/30 05:32:09;;;;;;;2.90;2.00;;;8.10;99.90;;;;;;5082890;28;20410;-74
2022/09/30 05:34:37;;;;;;;2.58;2.13;;;8.00;99.90;;;;;;5083278;28;20404;-74
2022/09/30 05:37:03;;;;;;;3.63;2.35;;;8.00;99.90;;;;;;5094222;28;20438;-74
2022/09/30 05:39:28;;;;;;;4.25;3.75;;;8.00;99.90;;;;;;5078973;28;20435;-73
2022/09/30 05:41:58;;;;;;;4.80;3.80;;;8.00;99.90;;;;;;5077189;28;20782;-73
2022/09/30 05:44:24;;;;;;;4.40;4.10;;;7.90;99.90;;;;;;5084598;28;20404;-73
2022/09/30 05:46:49;;;;;;;4.80;4.40;;;7.90;99.90;;;;;;5088298;28;20399;-73
2022/09/30 05:49:15;;;;;;;7.57;4.53;;;7.90;99.90;;;;;;5091066;28;20835;-73
2022/09/30 05:51:41;;;;;;;4.03;3.63;;;8.00;99.90;;;;;;5078184;28;20497;-73
2022/09/30 05:54:08;;;;;;;3.20;2.80;;;8.00;99.90;;;;;;5079590;28;20414;-72
2022/09/30 05:56:33;;;;;;;3.17;2.60;;;8.00;99.90;;;;;;5056378;28;20412;-73
2022/09/30 05:59:00;;;;;;;2.55;2.35;;;8.10;99.90;;;;;;5071913;28;20440;-73
2022/09/30 06:01:25;;;;;;;5.70;2.80;;;8.10;99.90;;;;;;5077664;28;20408;-73
2022/09/30 06:03:51;;;;;;;3.53;2.40;;;8.20;99.90;;;;;;5079038;28;20453;-73
2022/09/30 06:06:18;;;;;;;1.80;1.70;;;8.30;99.90;;;;;;5074917;28;20969;-74
2022/09/30 06:08:44;;;;;;;3.10;2.00;;;8.30;99.90;;;;;;5074619;28;20480;-74
2022/09/30 06:11:12;;;;;;;2.58;2.30;;;8.40;99.90;;;;;;5059219;28;20419;-74
2022/09/30 06:13:39;;;;;;;2.20;1.98;;;8.50;99.90;;;;;;5073991;28;20430;-74
2022/09/30 06:16:06;;;;;;;2.20;2.00;;;8.50;99.90;;;;;;5079946;28;20407;-74
2022/09/30 06:18:32;;;;;;;2.83;1.80;;;8.50;99.90;;;;;;5070992;28;20397;-73
2022/09/30 06:21:00;;;;;;;2.97;2.00;;;8.60;99.90;;;;;;5059640;28;20402;-73
2022/09/30 06:23:26;;;;;;;2.25;2.00;;;8.60;99.90;;;;;;5075221;28;20410;-73
2022/09/30 06:25:53;;;;;;;2.35;1.95;;;8.70;99.90;;;;;;5078262;28;20767;-74
2022/09/30 06:28:19;;;;;;;2.65;2.15;;;8.70;99.90;;;;;;5073886;28;20410;-73
2022/09/30 06:30:46;;;;;;;3.00;2.70;;;8.70;99.90;;;;;;5067802;28;20471;-73
2022/09/30 06:33:13;;;;;;;2.77;2.40;;;8.70;99.90;;;;;;5067650;28;20435;-73
2022/09/30 06:35:41;;;;;;;2.90;2.70;;;8.70;99.90;;;;;;5068554;28;21158;-73
2022/09/30 06:38:07;;;;;;;2.30;2.10;;;8.80;99.90;;;;;;5014014;28;1745032;-73
2022/09/30 06:40:33;;;;;;;2.67;2.20;;;8.80;99.90;;;;;;5073120;28;20415;-73
2022/09/30 06:42:59;;;;;;;2.50;2.30;;;8.80;99.90;;;;;;5074279;28;20869;-73
2022/09/30 06:45:26;;;;;;;2.80;1.90;;;8.70;99.90;;;;;;5069984;28;20388;-73
2022/09/30 06:47:58;;;;;;;2.17;1.83;;;8.60;99.90;;;;;;5074980;28;20411;-73
2022/09/30 06:50:25;;;;;;;2.40;1.90;;;8.60;99.90;;;;;;5075813;28;20388;-73
2022/09/30 06:52:50;;;;;;;3.60;1.98;;;8.50;99.90;;;;;;5070651;28;20446;-73
2022/09/30 06:55:17;;;;;;;2.00;1.90;;;8.40;99.90;;;;;;5079039;28;20455;-73
2022/09/30 06:57:46;;;;;;;2.53;2.00;;;8.30;99.90;;;;;;5082003;28;20404;-73
2022/09/30 07:00:14;;;;;;;2.90;2.50;;;8.40;99.90;;;;;;5071486;28;20396;-73
2022/09/30 07:02:39;;;;;;;3.13;2.10;;;8.50;99.90;;;;;;5079609;28;20461;-74
2022/09/30 07:05:05;;;;;;;3.00;2.37;;;8.50;99.90;;;;;;5080874;28;20961;-73
2022/09/30 07:07:33;;;;;;;2.60;2.40;;;8.50;99.90;;;;;;5067614;28;20427;-73
2022/09/30 07:09:59;;;;;;;2.35;2.15;;;8.60;99.90;;;;;;5076521;28;20851;-73
2022/09/30 07:12:25;;;;;;;3.58;3.28;;;8.60;99.90;;;;;;5081918;28;20607;-74
2022/09/30 07:14:51;;;;;;;4.80;2.30;;;8.70;99.90;;;;;;5081455;28;20414;-73
2022/09/30 07:17:17;;;;;;;2.43;2.20;;;8.70;99.90;;;;;;5071099;28;20407;-73
2022/09/30 07:19:43;;;;;;;4.00;2.47;;;8.90;99.90;;;;;;5061434;28;20395;-73
2022/09/30 07:22:27;;;;;;;4.13;2.90;;;9.00;99.90;;;;;;5075614;28;20383;-73
2022/09/30 07:24:57;;;;;;;2.60;2.40;;;9.00;99.90;;;;;;5087218;28;20461;-73
2022/09/30 07:27:24;;;;;;;3.53;2.73;;;9.10;99.90;;;;;;5077053;28;20399;-73
2022/09/30 07:29:50;;;;;;;3.13;2.70;;;9.00;99.90;;;;;;5073948;28;20403;-74
2022/09/30 07:32:16;;;;;;;3.75;3.17;;;9.00;99.90;;;;;;5078014;28;20388;-74
2022/09/30 07:34:41;;;;;;;3.63;2.70;;;9.20;99.90;;;;;;5078938;28;20404;-74
2022/09/30 07:37:08;;;;;;;3.30;3.00;;;9.40;99.90;;;;;;5091871;28;20389;-73
2022/09/30 07:39:35;;;;;;;4.70;3.05;;;9.50;99.90;;;;;;5082384;28;20754;-74
2022/09/30 07:42:03;;;;;;;3.03;2.75;;;9.60;99.90;;;;;;5072682;28;20407;-74
2022/09/30 07:44:28;;;;;;;3.10;2.80;;;9.70;99.90;;;;;;5081389;28;20910;-73
2022/09/30 07:46:54;;;;;;;3.25;2.95;;;9.80;99.90;;;;;;5073172;28;20479;-74
2022/09/30 07:49:24;;;;;;;2.92;2.63;;;9.90;99.90;;;;;;5074368;28;20457;-73
2022/09/30 07:51:51;;;;;;;3.10;2.80;;;9.80;99.90;;;;;;5053965;28;20447;-74
2022/09/30 07:54:21;;;;;;;2.80;2.60;;;9.90;99.90;;;;;;5074196;28;20834;-73
2022/09/30 07:56:47;;;;;;;2.40;2.20;;;9.90;99.90;;;;;;5074585;28;20405;-74
2022/09/30 07:59:13;;;;;;;2.80;2.50;;;9.90;99.90;;;;;;5076843;28;20408;-73
2022/09/30 08:01:39;;;;;;;2.40;2.20;;;10.10;99.90;;;;;;5080204;28;20401;-73
2022/09/30 08:04:08;;;;;;;3.13;2.83;;;10.20;99.90;;;;;;5079744;28;20490;-73
2022/09/30 08:06:39;;;;;;;2.77;2.57;;;10.10;99.90;;;;;;5071146;28;20384;-73
2022/09/30 08:09:06;;;;;;;4.30;2.40;;;10.20;99.90;;;;;;5079102;28;20403;-73
2022/09/30 08:11:36;;;;;;;2.45;2.25;;;10.10;99.90;;;;;;5072068;28;20471;-74
2022/09/30 08:14:03;;;;;;;3.83;2.47;;;10.00;99.90;;;;;;5070761;28;20430;-73
2022/09/30 08:16:28;;;;;;;2.50;2.30;;;10.10;99.90;;;;;;5073347;28;20439;-73
2022/09/30 08:18:59;;;;;;;4.50;2.50;;;10.10;99.90;;;;;;5071895;28;20743;-73
2022/09/30 08:21:26;;;;;;;2.75;2.55;;;10.10;99.90;;;;;;5074861;28;20396;-74
2022/09/30 08:23:51;;;;;;;2.70;2.50;;;10.00;99.90;;;;;;5072431;28;20441;-74
2022/09/30 08:26:17;;;;;;;2.80;2.60;;;9.90;99.90;;;;;;5071408;28;20793;-74
2022/09/30 08:28:46;;;;;;;2.80;2.60;;;10.10;99.90;;;;;;5071650;28;20428;-74
2022/09/30 08:31:14;;;;;;;2.70;2.50;;;10.20;99.90;;;;;;5053772;28;20453;-72
2022/09/30 08:33:40;;;;;;;4.43;2.70;;;9.90;99.90;;;;;;5071251;28;20396;-73
2022/09/30 08:36:09;;;;;;;2.80;2.60;;;10.20;99.90;;;;;;5072229;28;20406;-74
2022/09/30 08:38:35;;;;;;;2.90;2.55;;;10.50;99.90;;;;;;5071577;28;20561;-74
2022/09/30 08:41:03;;;;;;;3.28;2.97;;;10.50;99.90;;;;;;5075825;28;20404;-70
2022/09/30 08:43:53;;;;;;;3.28;2.97;;;10.50;99.90;;;;;;5074517;28;20459;-70
2022/09/30 08:46:40;;;;;;;3.60;2.70;;;10.60;99.90;;;;;;5071025;28;20403;-73
2022/09/30 08:49:29;;;;;;;3.08;2.88;;;10.60;99.90;;;;;;5085217;28;20416;-72
2022/09/30 08:51:57;;;;;;;2.72;2.53;;;10.60;99.90;;;;;;5091785;28;20383;-69
2022/09/30 08:54:28;;;;;;;3.22;2.92;;;10.50;99.90;;;;;;5085603;28;20548;-71
2022/09/30 08:56:54;;;;;;;3.40;3.10;;;10.60;99.90;;;;;;5071454;28;20398;-70
2022/09/30 08:59:43;;;;;;;4.53;3.30;;;10.60;99.90;;;;;;5072369;28;21158;-71
2022/09/30 09:02:15;;;;;;;3.27;3.00;;;10.60;99.90;;;;;;5083376;28;20481;-70
2022/09/30 09:04:41;;;;;;;4.15;3.20;;;10.70;99.90;;;;;;5081635;28;20404;-70
2022/09/30 09:07:51;;;;;;;3.30;3.00;;;10.90;99.90;;;;;;5079850;28;20414;-70
2022/09/30 09:10:29;;;;;;;3.42;3.13;;;10.90;99.90;;;;;;5075820;28;20932;-70
2022/09/30 09:13:01;;;;;;;4.25;2.70;;;10.90;99.90;;;;;;5081300;28;20807;-70
2022/09/30 09:15:35;;;;;;;3.03;2.73;;;10.80;99.90;;;;;;5078142;28;20406;-70
2022/09/30 09:18:33;;;;;;;3.10;2.80;;;11.00;99.90;;;;;;5087615;28;20394;-70
2022/09/30 09:21:08;;;;;;;4.28;3.88;;;11.00;99.90;;;;;;5073758;28;20413;-70
2022/09/30 09:23:34;;;;;;;3.30;3.10;;;11.00;99.90;;;;;;5079153;28;20409;-70
2022/09/30 09:26:00;;;;;;;2.90;2.70;;;11.10;99.90;;;;;;5073048;28;20392;-70
2022/09/30 09:28:43;;;;;;;5.30;3.50;;;11.30;99.90;;;;;;5053093;28;20473;-71
2022/09/30 09:31:15;;;;;;;4.10;3.80;;;11.30;99.90;;;;;;5089461;28;20440;-69
2022/09/30 09:33:42;;;;;;;4.70;4.30;;;11.00;99.90;;;;;;5090400;28;20382;-70
2022/09/30 09:36:14;;;;;;;4.53;4.13;;;11.00;99.90;;;;;;5090596;28;20416;-71
2022/09/30 09:38:51;;;;;;;4.95;4.03;;;11.10;99.90;;;;;;5072355;28;20395;-70
2022/09/30 09:41:47;;;;;;;4.18;3.80;;;11.10;99.90;;;;;;5070285;28;20446;-70
2022/09/30 09:44:50;;;;;;;4.90;4.32;;;11.10;99.90;;;;;;5076900;28;20785;-71
2022/09/30 09:47:16;;;;;;;4.20;3.90;;;10.90;99.90;;;;;;5088279;28;20398;-71
2022/09/30 09:49:53;;;;;;;4.30;4.00;;;11.00;99.90;;;;;;5089776;28;20393;-71
2022/09/30 09:52:43;;;;;;;4.20;3.90;;;11.00;99.90;;;;;;5071631;28;20390;-71
2022/09/30 09:55:10;;;;;;;4.47;4.07;;;11.10;99.90;;;;;;5089640;28;20438;-71
2022/09/30 09:57:36;;;;;;;4.28;3.90;;;11.20;99.90;;;;;;5071484;28;20798;-72
2022/09/30 10:03:05;;;;;;;3.72;3.42;;;11.20;99.90;;;;;;5077905;28;20431;-70
2022/09/30 10:05:38;;;;;;;3.90;3.58;;;11.20;99.90;;;;;;5081748;28;20467;-71
2022/09/30 10:08:15;;;;;;;3.80;3.50;;;11.20;99.90;;;;;;5069341;28;20384;-72
2022/09/30 10:10:46;;;;;;;3.85;3.55;;;11.10;99.90;;;;;;5053370;28;20418;-72
2022/09/30 10:13:31;;;;;;;4.85;3.88;;;10.90;99.90;;;;;;5069119;28;20387;-72
2022/09/30 10:15:58;;;;;;;4.20;3.90;;;10.80;99.90;;;;;;5071893;28;20408;-72
2022/09/30 10:18:36;;;;;;;3.80;3.50;;;11.20;99.90;;;;;;5070088;28;20396;-72
2022/09/30 10:21:06;;;;;;;4.13;3.80;;;11.30;99.90;;;;;;5087657;28;20370;-72
2022/09/30 10:23:36;;;;;;;4.60;4.20;;;11.50;99.90;;;;;;5074854;28;20375;-72
2022/09/30 10:26:14;;;;;;;3.70;3.40;;;11.40;99.90;;;;;;5071466;28;20383;-72
2022/09/30 10:28:48;;;;;;;3.85;3.55;;;11.40;99.90;;;;;;5087475;28;20392;-73
2022/09/30 10:31:28;;;;;;;4.22;3.75;;;11.10;99.90;;;;;;5070865;28;20907;-72
2022/09/30 10:34:03;;;;;;;4.20;3.80;;;11.20;99.90;;;;;;5078680;28;20413;-73
2022/09/30 10:36:34;;;;;;;4.30;4.00;;;11.40;99.90;;;;;;5079308;28;20470;-72
2022/09/30 10:39:04;;;;;;;3.90;3.60;;;11.60;99.90;;;;;;5091375;28;20390;-72
2022/09/30 10:41:33;;;;;;;3.90;3.60;;;11.80;99.90;;;;;;5093566;28;20374;-72
2022/09/30 10:44:01;;;;;;;4.10;3.70;;;11.50;99.90;;;;;;5093979;28;20382;-72
2022/09/30 10:46:31;;;;;;;3.47;3.20;;;11.40;99.90;;;;;;5093338;28;20382;-71
2022/09/30 10:48:59;;;;;;;4.10;3.70;;;11.40;99.90;;;;;;5092955;28;20386;-72
2022/09/30 10:51:32;;;;;;;3.80;3.47;;;11.70;99.90;;;;;;5086600;28;20427;-72
2022/09/30 10:53:58;;;;;;;5.40;3.85;;;11.80;99.90;;;;;;5085041;28;20499;-72
2022/09/30 10:56:44;;;;;;;4.28;3.92;;;11.50;99.90;;;;;;5074520;28;20462;-73
2022/09/30 10:59:30;;;;;;;4.03;3.72;;;11.50;99.90;;;;;;5092171;28;20425;-72
2022/09/30 11:02:26;;;;;;;4.38;3.80;;;11.90;99.90;;;;;;5093182;28;20397;-72
2022/09/30 11:05:17;;;;;;;4.25;3.85;;;12.10;99.90;;;;;;5084475;28;20416;-72
2022/09/30 11:07:50;;;;;;;3.60;3.30;;;12.30;99.90;;;;;;5082107;28;20399;-72
2022/09/30 11:10:31;;;;;;;4.55;3.40;;;13.00;99.90;;;;;;5091696;28;20949;-72
2022/09/30 11:13:22;;;;;;;3.80;3.40;;;13.00;99.90;;;;;;5092532;28;20382;-72
2022/09/30 11:16:10;;;;;;;3.90;3.42;;;13.60;99.90;;;;;;5092695;28;20402;-72
2022/09/30 11:19:06;;;;;;;4.00;3.60;;;14.20;99.90;;;;;;5087396;28;20431;-73
2022/09/30 11:21:45;;;;;;;3.40;3.10;;;14.20;99.90;;;;;;5077793;28;20771;-73
2022/09/30 11:24:14;;;;;;;3.40;3.20;;;14.40;99.90;;;;;;5078108;28;20474;-73
2022/09/30 11:27:01;;;;;;;3.70;3.40;;;13.90;99.90;;;;;;5078169;28;20399;-73
2022/09/30 11:29:50;;;;;;;6.93;3.88;;;13.50;99.90;;;;;;5080972;28;20409;-73
2022/09/30 11:32:38;;;;;;;7.45;4.10;;;13.80;99.90;;;;;;5080607;28;20477;-71
2022/09/30 11:35:59;;;;;;;3.42;3.22;;;13.50;99.90;;;;;;5079277;28;20498;-72
2022/09/30 11:38:56;;;;;;;4.70;3.58;;;14.00;99.90;;;;;;4947893;28;20418;-73
2022/09/30 11:41:27;;;;;;;3.90;3.60;;;14.10;99.90;;;;;;5074879;28;20403;-72
2022/09/30 11:44:14;;;;;;;3.63;3.33;;;14.20;99.90;;;;;;5072960;28;20474;-71
2022/09/30 11:46:51;;;;;;;4.10;3.80;;;14.00;99.90;;;;;;5074915;28;20399;-72
2022/09/30 11:49:47;;;;;;;4.25;3.85;;;13.50;99.90;;;;;;5072212;28;20372;-72
2022/09/30 11:52:51;;;;;;;3.97;3.33;;;13.10;99.90;;;;;;5071585;28;20483;-72
2022/09/30 11:55:37;;;;;;;4.10;3.70;;;13.30;99.90;;;;;;5074630;28;20569;-72
2022/09/30 11:58:09;;;;;;;4.00;3.70;;;15.20;99.90;;;;;;5056166;28;20827;-72
2022/09/30 12:00:50;;;;;;;4.20;3.80;;;14.40;99.90;;;;;;5072726;28;20462;-72
2022/09/30 12:03:27;;;;;;;3.80;3.50;;;14.30;99.90;;;;;;5076598;28;20912;-72
2022/09/30 12:06:00;;;;;;;4.50;3.97;;;15.00;99.90;;;;;;5073633;28;20420;-72
2022/09/30 12:08:32;;;;;;;4.25;3.95;;;15.60;99.90;;;;;;5073371;28;20957;-72
2022/09/30 12:11:20;;;;;;;4.40;3.90;;;15.30;99.90;;;;;;5076920;28;20525;-72
2022/09/30 12:13:57;;;;;;;4.13;3.83;;;15.10;99.90;;;;;;5075768;28;20408;-72
2022/09/30 12:16:25;;;;;;;4.18;3.78;;;14.50;99.90;;;;;;5075820;28;20376;-72
2022/09/30 12:19:03;;;;;;;4.20;3.80;;;14.20;99.90;;;;;;5078963;28;20440;-72
2022/09/30 12:21:39;;;;;;;4.00;3.70;;;13.90;99.90;;;;;;5072530;28;20398;-72
2022/09/30 12:24:32;;;;;;;4.25;3.85;;;13.80;99.90;;;;;;5072266;28;20481;-72
2022/09/30 12:27:00;;;;;;;3.97;3.67;;;13.70;99.90;;;;;;5071174;28;20392;-72
2022/09/30 12:32:20;;;;;;;3.30;3.00;;;13.60;99.90;;;;;;5071990;28;20379;-71
2022/09/30 12:35:18;;;;;;;4.00;3.60;;;13.50;99.90;;;;;;5071705;28;20441;-71
2022/09/30 12:38:24;;;;;;;4.70;4.30;;;13.70;99.90;;;;;;5073227;28;20496;-71
2022/09/30 12:40:53;;;;;;;4.82;4.43;;;13.40;99.90;;;;;;5068601;28;20403;-72
2022/09/30 12:43:54;;;;;;;5.40;4.40;;;13.50;99.90;;;;;;5071370;28;20881;-72
2022/09/30 12:46:22;;;;;;;3.90;3.60;;;13.50;99.90;;;;;;5071704;28;20429;-72
2022/09/30 12:48:56;;;;;;;4.60;4.20;;;13.40;99.90;;;;;;5071545;28;20367;-72
2022/09/30 12:51:24;;;;;;;4.43;4.00;;;13.40;99.90;;;;;;5071459;28;20376;-72
2022/09/30 12:53:56;;;;;;;4.50;4.10;;;13.40;99.90;;;;;;5078668;28;20887;-72
2022/09/30 12:56:27;;;;;;;4.73;4.33;;;13.70;99.90;;;;;;5077463;28;20399;-72
2022/09/30 12:58:53;;;;;;;3.97;3.67;;;13.90;99.90;;;;;;5070651;28;20391;-72
2022/09/30 13:01:35;;;;;;;4.10;3.80;;;13.80;99.90;;;;;;5053504;28;20505;-72
2022/09/30 13:04:01;;;;;;;3.92;3.63;;;14.00;99.90;;;;;;5071045;28;20399;-72
2022/09/30 13:06:45;;;;;;;4.13;3.72;;;14.20;99.90;;;;;;5093909;28;20385;-72
2022/09/30 13:09:10;;;;;;;4.25;3.83;;;14.30;99.90;;;;;;5103810;28;20490;-72
2022/09/30 13:11:47;;;;;;;5.37;4.07;;;14.20;99.90;;;;;;5090482;28;20443;-72
2022/09/30 13:14:31;;;;;;;3.80;3.50;;;14.00;99.90;;;;;;5070699;28;20415;-71
2022/09/30 13:16:57;;;;;;;4.18;3.88;;;13.90;99.90;;;;;;5070867;28;20730;-71
2022/09/30 13:19:35;;;;;;;4.40;4.10;;;14.00;99.90;;;;;;5075449;28;20394;-72
2022/09/30 13:22:28;;;;;;;6.28;4.10;;;13.90;99.90;;;;;;5089593;28;20879;-71
2022/09/30 13:24:59;;;;;;;4.10;3.80;;;13.90;99.90;;;;;;5072340;28;20401;-72
2022/09/30 13:27:52;;;;;;;3.97;3.67;;;14.00;99.90;;;;;;5070673;28;20391;-74
2022/09/30 13:30:17;;;;;;;4.30;3.90;;;13.80;99.90;;;;;;5066723;28;20418;-75